createdAt,value
2023-05-02T00:04:32.810Z,97581.77
2023-05-02T00:08:57.332Z,97580.85
2023-05-02T00:13:06.849Z,97578.52
2023-05-02T00:17:52.308Z,97579.34
2023-05-02T00:22:16.563Z,97582.58
2023-05-02T00:26:49.712Z,97578.36
2023-05-02T00:31:27.353Z,97577.25
2023-05-02T00:35:58.513Z,97571.58
2023-05-02T00:40:42.498Z,97571.48
2023-05-02T00:44:46.550Z,97572.60
2023-05-02T00:50:12.747Z,97570.42
2023-05-02T00:54:32.411Z,97565.39
2023-05-02T01:05:47.765Z,97566.31
2023-05-02T01:09:56.060Z,97570.76
2023-05-02T01:14:18.921Z,97572.31
2023-05-02T01:19:01.984Z,97572.78
2023-05-02T01:23:44.598Z,97574.74
2023-05-02T01:28:20.473Z,97577.69
2023-05-02T01:32:26.899Z,97573.14
2023-05-02T01:36:51.434Z,97570.39
2023-05-02T01:41:13.594Z,97571.51
2023-05-02T01:45:16.853Z,97571.01
2023-05-02T01:53:08.210Z,97572.98
2023-05-02T01:57:51.984Z,97574.05
2023-05-02T02:01:57.153Z,97572.16
2023-05-02T02:06:42.592Z,97573.20
2023-05-02T02:11:22.576Z,97568.73
2023-05-02T02:15:29.615Z,97568.66
2023-05-02T02:19:41.339Z,97567.88
2023-05-02T02:23:54.531Z,97567.42
2023-05-02T02:27:59.357Z,97569.14
2023-05-02T02:32:43.751Z,97574.19
2023-05-02T02:37:17.036Z,97575.79
2023-05-02T02:42:01.759Z,97575.59
2023-05-02T02:46:30.713Z,97579.73
2023-05-02T02:51:28.089Z,97576.58
2023-05-02T02:55:58.232Z,97575.45
2023-05-02T03:00:52.029Z,97578.80
2023-05-02T03:05:23.730Z,97575.30
2023-05-02T03:09:46.382Z,97577.34
2023-05-02T03:14:30.295Z,97578.05
2023-05-02T03:19:02.134Z,97579.12
2023-05-02T03:23:46.186Z,97575.86
2023-05-02T03:28:14.287Z,97575.62
2023-05-02T03:32:40.167Z,97580.27
2023-05-02T03:36:47.951Z,97577.55
2023-05-02T03:41:12.163Z,97580.59
2023-05-02T03:45:16.744Z,97581.98
2023-05-02T03:49:37.098Z,97584.67
2023-05-02T03:54:04.722Z,97591.16
2023-05-02T03:58:37.763Z,97591.81
2023-05-02T04:03:13.517Z,97596.06
2023-05-02T04:07:20.396Z,97593.30
2023-05-02T04:11:33.121Z,97594.31
2023-05-02T04:15:40.788Z,97595.61
2023-05-02T04:19:40.949Z,97592.91
2023-05-02T04:23:53.297Z,97592.44
2023-05-02T04:28:25.418Z,97591.01
2023-05-02T04:32:34.862Z,97587.48
2023-05-02T04:36:22.978Z,97594.11
2023-05-02T04:40:04.631Z,97595.40
2023-05-02T04:43:45.377Z,97597.44
2023-05-02T04:47:31.383Z,97596.28
2023-05-02T04:51:31.067Z,97595.97
2023-05-02T04:55:15.693Z,97599.74
2023-05-02T04:58:41.675Z,97601.98
2023-05-02T05:02:28.864Z,97603.05
2023-05-02T05:05:56.279Z,97607.02
2023-05-02T05:09:23.024Z,97603.05
2023-05-02T05:12:51.767Z,97607.79
2023-05-02T05:16:38.068Z,97609.53
2023-05-02T05:20:27.412Z,97611.98
2023-05-02T05:24:03.507Z,97611.60
2023-05-02T05:27:50.581Z,97609.70
2023-05-02T05:31:35.936Z,97614.32
2023-05-02T05:35:19.016Z,97618.02
2023-05-02T05:38:46.479Z,97615.91
2023-05-02T05:42:32.430Z,97618.67
2023-05-02T05:46:01.623Z,97619.03
2023-05-02T05:49:29.559Z,97619.56
2023-05-02T05:53:01.486Z,97619.02
2023-05-02T05:56:45.551Z,97625.82
2023-05-02T06:00:13.030Z,97628.54
2023-05-02T06:04:08.944Z,97632.30
2023-05-02T06:07:33.040Z,97632.39
2023-05-02T06:11:23.188Z,97637.48
2023-05-02T06:14:49.814Z,97638.06
2023-05-02T06:18:18.682Z,97638.50
2023-05-02T06:22:03.541Z,97638.73
2023-05-02T06:25:35.426Z,97641.33
2023-05-02T06:29:06.076Z,97649.56
2023-05-02T06:32:56.061Z,97651.42
2023-05-02T06:36:23.858Z,97650.08
2023-05-02T06:39:56.823Z,97655.08
2023-05-02T06:43:22.569Z,97654.33
2023-05-02T06:46:47.631Z,97659.03
2023-05-02T06:50:12.858Z,97661.21
2023-05-02T06:53:39.973Z,97664.64
2023-05-02T06:57:12.164Z,97663.02
2023-05-02T07:00:36.000Z,97662.49
2023-05-02T07:04:02.211Z,97660.39
2023-05-02T07:07:26.245Z,97655.70
2023-05-02T07:10:52.478Z,97663.70
2023-05-02T07:14:21.961Z,97670.04
2023-05-02T07:17:55.485Z,97673.17
2023-05-02T07:21:19.741Z,97672.48
2023-05-02T07:24:44.169Z,97677.94
2023-05-02T07:28:08.217Z,97677.48
2023-05-02T07:31:40.283Z,97679.33
2023-05-02T07:35:11.563Z,97682.68
2023-05-02T07:38:42.209Z,97684.41
2023-05-02T07:42:20.482Z,97687.08
2023-05-02T07:45:59.588Z,97692.31
2023-05-02T07:49:34.016Z,97692.88
2023-05-02T07:53:12.489Z,97695.44
2023-05-02T07:56:39.174Z,97697.02
2023-05-02T08:00:18.877Z,97698.31
2023-05-02T08:03:50.763Z,97700.56
2023-05-02T08:07:17.736Z,97704.39
2023-05-02T08:10:52.056Z,97705.55
2023-05-02T08:14:17.496Z,97706.50
2023-05-02T08:17:43.714Z,97705.87
2023-05-02T08:21:19.744Z,97703.27
2023-05-02T08:24:44.798Z,97706.56
2023-05-02T08:28:42.911Z,97708.81
2023-05-02T08:32:25.745Z,97708.84
2023-05-02T08:35:53.293Z,97713.61
2023-05-02T08:39:18.347Z,97713.17
2023-05-02T08:42:57.398Z,97712.47
2023-05-02T08:46:28.611Z,97711.99
2023-05-02T08:50:02.890Z,97710.02
2023-05-02T08:53:29.773Z,97713.95
2023-05-02T08:56:54.299Z,97721.13
2023-05-02T09:00:31.958Z,97727.08
2023-05-02T09:04:02.588Z,97725.02
2023-05-02T09:07:27.802Z,97724.95
2023-05-02T09:11:06.890Z,97719.79
2023-05-02T09:14:47.894Z,97716.62
2023-05-02T09:18:25.504Z,97725.11
2023-05-02T09:22:10.259Z,97727.86
2023-05-02T09:25:39.241Z,97728.81
2023-05-02T09:29:07.367Z,97731.89
2023-05-02T09:32:45.616Z,97743.28
2023-05-02T09:36:16.431Z,97749.67
2023-05-02T09:39:40.823Z,97748.23
2023-05-02T09:43:17.612Z,97755.30
2023-05-02T09:47:02.799Z,97756.86
2023-05-02T09:50:38.046Z,97760.88
2023-05-02T09:55:01.455Z,97757.48
2023-05-02T09:58:33.463Z,97759.75
2023-05-02T10:02:05.438Z,97761.21
2023-05-02T10:05:48.334Z,97763.40
2023-05-02T10:09:22.880Z,97768.55
2023-05-02T10:12:34.869Z,97771.38
2023-05-02T10:16:03.436Z,97773.48
2023-05-02T10:19:40.154Z,97773.66
2023-05-02T10:23:12.476Z,97769.30
2023-05-02T10:26:35.965Z,97770.30
2023-05-02T10:30:24.469Z,97769.96
2023-05-02T10:34:12.212Z,97773.34
2023-05-02T10:37:38.842Z,97776.31
2023-05-02T10:41:24.864Z,97775.45
2023-05-02T10:45:03.441Z,97782.84
2023-05-02T10:48:38.894Z,97784.54
2023-05-02T10:52:53.908Z,97780.80
2023-05-02T10:56:34.091Z,97781.89
2023-05-02T11:00:40.532Z,97780.05
2023-05-02T11:04:20.256Z,97779.75
2023-05-02T11:07:48.132Z,97781.23
2023-05-02T11:12:10.045Z,97781.40
2023-05-02T11:16:09.171Z,97781.70
2023-05-02T11:19:46.753Z,97781.31
2023-05-02T11:23:16.460Z,97778.54
2023-05-02T11:26:46.822Z,97781.86
2023-05-02T11:30:10.388Z,97782.70
2023-05-02T11:34:02.887Z,97784.53
2023-05-02T11:37:33.782Z,97786.82
2023-05-02T11:41:04.108Z,97787.90
2023-05-02T11:44:54.837Z,97785.20
2023-05-02T11:48:15.326Z,97791.96
2023-05-02T11:51:40.875Z,97795.12
2023-05-02T11:55:11.802Z,97793.26
2023-05-02T11:58:37.529Z,97791.66
2023-05-02T12:02:18.936Z,97791.72
2023-05-02T12:05:56.036Z,97796.17
2023-05-02T12:09:33.327Z,97799.20
2023-05-02T12:13:09.379Z,97796.77
2023-05-02T12:16:49.519Z,97799.76
2023-05-02T12:20:19.472Z,97797.75
2023-05-02T12:23:44.320Z,97796.45
2023-05-02T12:27:20.911Z,97800.33
2023-05-02T12:30:54.218Z,97802.23
2023-05-02T12:34:36.012Z,97801.93
2023-05-02T12:38:31.612Z,97799.02
2023-05-02T12:42:03.381Z,97802.49
2023-05-02T12:45:42.873Z,97800.22
2023-05-02T12:49:29.356Z,97799.77
2023-05-02T12:53:15.148Z,97798.95
2023-05-02T12:57:04.694Z,97796.98
2023-05-02T13:00:55.936Z,97799.56
2023-05-02T13:04:21.714Z,97805.67
2023-05-02T13:07:51.238Z,97810.05
2023-05-02T13:11:19.972Z,97810.48
2023-05-02T13:14:43.748Z,97808.16
2023-05-02T13:18:48.018Z,97814.66
2023-05-02T13:22:13.233Z,97821.09
2023-05-02T13:25:40.991Z,97820.73
2023-05-02T13:29:15.941Z,97827.86
2023-05-02T13:33:04.811Z,97824.58
2023-05-02T13:36:45.297Z,97831.48
2023-05-02T13:40:14.074Z,97835.58
2023-05-02T13:43:57.529Z,97835.61
2023-05-02T13:47:24.862Z,97834.70
2023-05-02T13:50:52.096Z,97835.36
2023-05-02T13:54:20.835Z,97840.06
2023-05-02T13:57:47.906Z,97849.19
2023-05-02T14:01:28.499Z,97845.38
2023-05-02T14:04:53.946Z,97845.35
2023-05-02T14:08:28.598Z,97853.58
2023-05-02T14:12:16.624Z,97860.70
2023-05-02T14:15:59.272Z,97862.32
2023-05-02T14:19:32.756Z,97863.67
2023-05-02T14:22:57.774Z,97870.54
2023-05-02T14:26:31.176Z,97868.27
2023-05-02T14:30:16.232Z,97874.02
2023-05-02T14:34:09.734Z,97885.27
2023-05-02T14:38:13.535Z,97902.95
2023-05-02T14:41:57.637Z,97915.93
2023-05-02T14:46:03.241Z,97913.73
2023-05-02T14:50:07.432Z,97914.60
2023-05-02T14:54:34.958Z,97936.98
2023-05-02T14:58:56.316Z,97950.29
2023-05-02T15:03:06.518Z,97955.55
2023-05-02T15:07:25.216Z,97963.05
2023-05-02T15:11:30.183Z,97963.10
2023-05-02T15:15:36.701Z,97972.90
2023-05-02T15:19:31.262Z,97974.70
2023-05-02T15:23:06.011Z,97977.80
2023-05-02T15:27:06.946Z,97984.79
2023-05-02T15:30:52.595Z,97988.15
2023-05-02T15:34:55.727Z,97992.73
2023-05-02T15:38:36.949Z,98004.43
2023-05-02T15:42:44.787Z,98005.96
2023-05-02T15:47:08.435Z,98005.48
2023-05-02T15:51:05.398Z,98018.91
2023-05-02T15:55:09.818Z,98019.98
2023-05-02T15:59:16.565Z,98018.65
2023-05-02T16:03:22.946Z,98015.98
2023-05-02T16:07:47.383Z,98018.63
2023-05-02T16:11:52.077Z,98022.08
2023-05-02T16:15:28.811Z,98025.56
2023-05-02T16:19:32.147Z,98027.78
2023-05-02T16:23:37.364Z,98030.73
2023-05-02T16:27:46.918Z,98035.02
2023-05-02T16:32:20.008Z,98042.17
2023-05-02T16:36:30.938Z,98043.80
2023-05-02T16:40:38.914Z,98050.98
2023-05-02T16:44:51.969Z,98065.00
2023-05-02T16:48:56.402Z,98071.55
2023-05-02T16:53:20.338Z,98066.19
2023-05-02T16:57:27.857Z,98071.66
2023-05-02T17:02:07.836Z,98073.96
2023-05-02T17:06:19.561Z,98071.58
2023-05-02T17:10:28.188Z,98073.84
2023-05-02T17:14:50.770Z,98077.38
2023-05-02T17:19:22.404Z,98078.83
2023-05-02T17:23:48.001Z,98086.01
2023-05-02T17:28:23.897Z,98088.77
2023-05-02T17:32:27.836Z,98091.97
2023-05-02T17:36:55.182Z,98100.61
2023-05-02T17:41:37.896Z,98104.92
2023-05-02T17:45:42.909Z,98108.31
2023-05-02T17:50:07.609Z,98113.52
2023-05-02T17:54:32.579Z,98111.82
2023-05-02T17:58:44.125Z,98114.66
2023-05-02T18:02:48.725Z,98118.35
2023-05-02T18:07:32.684Z,98118.23
2023-05-02T18:12:05.577Z,98116.21
2023-05-02T18:15:56.016Z,98111.30
2023-05-02T18:20:04.596Z,98109.00
2023-05-02T18:24:49.118Z,98103.95
2023-05-02T18:29:20.742Z,98106.88
2023-05-02T18:33:36.772Z,98106.67
2023-05-02T18:38:20.444Z,98103.00
2023-05-02T18:42:45.640Z,98108.69
2023-05-02T18:47:26.716Z,98110.29
2023-05-02T18:51:46.348Z,98114.48
2023-05-02T18:56:10.722Z,98117.45
2023-05-02T19:00:55.199Z,98117.38
2023-05-02T19:05:18.513Z,98117.64
2023-05-02T19:10:02.604Z,98117.69
2023-05-02T19:14:46.134Z,98116.46
2023-05-02T19:19:20.178Z,98118.49
2023-05-02T19:23:44.853Z,98118.35
2023-05-02T19:28:21.550Z,98126.73
2023-05-02T19:32:27.428Z,98130.59
2023-05-02T19:37:11.665Z,98134.36
2023-05-02T19:41:55.405Z,98139.69
2023-05-02T19:46:09.053Z,98140.94
2023-05-02T19:50:16.886Z,98144.40
2023-05-02T20:06:35.776Z,98166.77
2023-05-02T20:11:07.237Z,98168.79
2023-05-02T20:15:31.423Z,98165.63
2023-05-02T20:19:36.635Z,98169.44
2023-05-02T20:23:45.478Z,98171.34
2023-05-02T20:28:29.326Z,98179.85
2023-05-02T20:33:15.616Z,98181.80
2023-05-02T20:37:15.168Z,98189.27
2023-05-02T20:41:15.392Z,98191.98
2023-05-02T20:45:19.460Z,98191.65
2023-05-02T20:49:43.508Z,98192.27
2023-05-02T20:53:50.802Z,98201.47
2023-05-02T20:57:59.382Z,98207.48
2023-05-02T21:02:44.087Z,98213.30
2023-05-02T21:07:11.934Z,98218.36
2023-05-02T21:11:56.333Z,98222.40
2023-05-02T21:16:35.904Z,98217.04
2023-05-02T21:21:00.112Z,98225.64
2023-05-02T21:25:05.518Z,98232.55
2023-05-02T21:29:35.418Z,98234.29
2023-05-02T21:34:19.959Z,98237.63
2023-05-02T21:39:04.218Z,98241.31
2023-05-02T21:43:01.889Z,98247.04
2023-05-02T21:46:56.611Z,98250.91
2023-05-02T21:51:22.535Z,98249.36
2023-05-02T21:55:51.649Z,98251.46
2023-05-02T22:00:00.599Z,98251.96
2023-05-02T22:04:45.057Z,98252.42
2023-05-02T22:09:17.232Z,98253.16
2023-05-02T22:13:56.568Z,98256.90
2023-05-02T22:18:25.902Z,98261.23
2023-05-02T22:23:10.378Z,98265.20
2023-05-02T22:27:54.745Z,98259.96
2023-05-02T22:32:00.535Z,98261.39
2023-05-02T22:36:24.447Z,98263.67
2023-05-02T22:41:09.274Z,98260.02
2023-05-02T22:45:32.145Z,98258.58
2023-05-02T22:49:33.729Z,98258.89
2023-05-02T22:53:44.691Z,98262.18
2023-05-02T22:58:06.071Z,98261.55
2023-05-02T23:02:09.836Z,98262.85
2023-05-02T23:06:35.043Z,98261.67
2023-05-02T23:11:19.112Z,98260.65
2023-05-02T23:16:03.210Z,98257.48
2023-05-02T23:20:24.961Z,98256.27
2023-05-02T23:24:49.454Z,98254.86
2023-05-02T23:29:30.717Z,98254.45
2023-05-02T23:33:55.032Z,98255.13
2023-05-02T23:38:22.600Z,98253.75
2023-05-02T23:42:49.609Z,98254.29
2023-05-02T23:47:33.250Z,98254.87
2023-05-02T23:51:51.728Z,98254.84
2023-05-02T23:56:36.282Z,98257.63
